Henry, Illinois
Current Conditions -  °F | °C
As of 11:15 AM on Sunday 21 Dec 2014 (Local Time) from KC75 Reporting Station
Overcast Overcast  
Wind Chill: 30°   Ceiling: 2700
Heat Index: 37°   Visibility: 10mi
Dew Point: 31°   Wind: 9mph
Humidity: 80%   Direction: 180°S
Pressure: 30.14"   Gusts: NA
Location:  41.11°N, 89.36°W
Report Text: KC75 211715Z AUTO 18008KT 10SM OVC027 03/M01 A3014 RMK AO2 T00261006
Loading
Personal Weather Stations






























Interactive Weather Map New forecast layout! Learn more

10-Day Weather Forecast

Advertisements
Track Severe Weather on mobile